Погода Завятна 2 недели

Поморское воеводство, Польша

15 - 28 июля
  • 15июля
    Сегодня
    +17°
    +26°
    Ясно и безоблачно
    ВремяПогодаТемператураВлажностьДавлениеВетер, м/сВероятность осадков
    02:00Облачно с прояснениями+15°C94 %747 мм2.3 м/с2 %
    05:00Практически безоблачно+14°C95 %747 мм2.3 м/с2 %
    08:00Ясно и безоблачно+19°C82 %747 мм2.0 м/с2 %
    11:00Практически безоблачно+23°C55 %747 мм2.4 м/с2 %
    14:00Ясно и безоблачно+25°C49 %747 мм2.5 м/с1 %
    17:00Практически безоблачно+25°C51 %746 мм3.2 м/с3 %
    20:00Облачно с прояснениями+23°C71 %746 мм1.4 м/с14 %
    23:00Ясно и безоблачно+20°C77 %746 мм2.9 м/с2 %
  • 16июля
    Вторник
    +16°
    +30°
    Облачно с прояснениями
    ВремяПогодаТемператураВлажностьДавлениеВетер, м/сВероятность осадков
    02:00Практически безоблачно+19°C80 %746 мм3.5 м/с2 %
    05:00Облачно с прояснениями+17°C79 %746 мм3.3 м/с2 %
    08:00Ясно и безоблачно+22°C75 %746 мм4.1 м/с2 %
    11:00Небольшая облачность+26°C64 %745 мм5.4 м/с1 %
    14:00Облачно с прояснениями+26°C60 %744 мм4.7 м/с5 %
    17:00Небольшая облачность, возможен дождь с грозой+23°C73 %744 мм3.1 м/с48 %
    20:00Небольшая облачность, ливень+21°C92 %744 мм2.9 м/с74 %
    23:00Практически безоблачно+18°C96 %745 мм2.0 м/с33 %
  • 17июля
    Среда
    +14°
    +24°
    Небольшая облачность
    ВремяПогодаТемператураВлажностьДавлениеВетер, м/сВероятность осадков
    02:00Ясно и безоблачно+17°C96 %745 мм3.1 м/с3 %
    05:00Ясно и безоблачно+16°C95 %746 мм3.2 м/с2 %
    08:00Ясно и безоблачно+19°C82 %747 мм4.3 м/с2 %
    11:00Практически безоблачно+22°C64 %748 мм5.1 м/с13 %
    14:00Небольшая облачность+23°C54 %749 мм6.9 м/с27 %
    17:00Облачно с прояснениями+21°C58 %749 мм6.4 м/с33 %
    20:00Практически безоблачно+20°C71 %750 мм3.3 м/с13 %
    23:00Облачно с прояснениями+16°C83 %750 мм2.6 м/с2 %
  • 18июля
    Четверг
    +12°
    +23°
    Практически безоблачно
    ВремяПогодаТемператураВлажностьДавлениеВетер, м/сВероятность осадков
    02:00Ясно и безоблачно+15°C90 %751 мм3.5 м/с2 %
    05:00Ясно и безоблачно+14°C94 %751 мм3.5 м/с2 %
    08:00Облачно с прояснениями+17°C81 %751 мм4.9 м/с8 %
    11:00Облачно с прояснениями+20°C68 %752 мм5.0 м/с29 %
    14:00Практически безоблачно+22°C55 %752 мм4.9 м/с23 %
    17:00Небольшая облачность+20°C65 %752 мм5.0 м/с14 %
    20:00Небольшая облачность+19°C75 %752 мм2.9 м/с3 %
    23:00Облачно с прояснениями+15°C91 %752 мм1.8 м/с2 %
  • 19июля
    Пятница
    +12°
    +24°
    Ясно и безоблачно
    ВремяПогодаТемператураВлажностьДавлениеВетер, м/сВероятность осадков
    02:00Облачно с прояснениями+14°C91 %752 мм1.9 м/с2 %
    05:00Облачно с прояснениями+13°C93 %751 мм2.2 м/с2 %
    08:00Ясно и безоблачно+17°C80 %752 мм2.5 м/с2 %
    11:00Ясно и безоблачно+21°C60 %752 мм3.9 м/с10 %
    14:00Ясно и безоблачно+23°C51 %751 мм3.8 м/с19 %
    17:00Ясно и безоблачно+21°C56 %751 мм3.4 м/с14 %
    20:00Ясно и безоблачно+19°C71 %750 мм1.3 м/с3 %
    23:00Ясно и безоблачно+16°C81 %750 мм1.4 м/с2 %
Мы используем cookies
Соглашаюсь